Time;durP1;ratioP1;P1;durP2;ratioP2;P2;SDS_P1;SDS_P2;PMS_P1;PMS_P2;Temp;Humidity;BMP_temperature;BMP_pressure;BME280_temperature;BME280_humidity;BME280_pressure;Samples;Min_cycle;Max_cycle;Signal;HPM_P1;HPM_P2
2023/10/06 05:07:17;;;;;;;;;;;;;;;17.81;62.30;97792.13;4230631;27;10363;-61
2023/10/06 05:09:21;;;;;;;;;;;;;;;18.08;61.60;97790.09;4222745;28;5822;-61
2023/10/06 05:11:24;;;;;;;;;;;;;;;18.31;61.18;97792.19;4231480;28;5684;-62
2023/10/06 05:13:27;;;;;;;;;;;;;;;18.49;60.73;97789.59;4231711;28;6389;-62
2023/10/06 05:15:30;;;;;;;;;;;;;;;18.60;60.27;97788.88;4230966;28;5685;-62
2023/10/06 05:17:33;;;;;;;;;;;;;;;18.73;59.93;97792.50;4227857;28;5709;-62
2023/10/06 05:19:36;;;;;;;;;;;;;;;18.82;59.65;97794.66;4214825;28;6354;-62
2023/10/06 05:21:39;;;;;;;;;;;;;;;18.89;59.53;97791.91;4225999;28;5751;-62
2023/10/06 05:23:45;;;;;;;;;;;;;;;18.94;58.98;97784.03;4224232;28;5815;-62
2023/10/06 05:25:48;;;;;;;;;;;;;;;18.99;58.76;97786.84;4220027;28;5730;-62
2023/10/06 05:27:53;;;;;;;;;;;;;;;19.03;58.75;97788.06;4226583;28;5101;-62
2023/10/06 05:29:57;;;;;;;;;;;;;;;19.07;58.63;97781.22;4227665;28;5800;-61
2023/10/06 05:32:00;;;;;;;;;;;;;;;19.10;58.21;97786.13;4227656;28;5680;-62
2023/10/06 05:34:07;;;;;;;;;;;;;;;19.13;57.89;97785.66;4220860;28;5850;-62
2023/10/06 05:36:10;;;;;;;;;;;;;;;19.14;57.88;97790.00;4218471;28;5799;-62
2023/10/06 05:38:14;;;;;;;;;;;;;;;19.16;57.55;97787.91;4220943;28;5849;-62
2023/10/06 05:40:20;;;;;;;;;;;;;;;19.17;57.37;97786.88;4221052;28;5763;-62
2023/10/06 05:42:23;;;;;;;;;;;;;;;19.19;57.28;97792.00;4231235;28;5732;-62
2023/10/06 05:44:26;;;;;;;;;;;;;;;19.19;57.06;97795.50;4231462;28;5728;-63
2023/10/06 05:46:30;;;;;;;;;;;;;;;19.20;57.02;97796.31;4223644;28;5669;-62
2023/10/06 05:48:34;;;;;;;;;;;;;;;19.23;57.01;97795.03;4225544;28;5792;-62
2023/10/06 05:50:37;;;;;;;;;;;;;;;19.23;56.43;97790.50;4218732;28;5660;-61
2023/10/06 05:52:39;;;;;;;;;;;;;;;19.23;56.44;97789.69;4221118;28;5765;-62
2023/10/06 05:54:42;;;;;;;;;;;;;;;19.23;56.34;97797.72;4224483;28;5848;-62
2023/10/06 05:56:47;;;;;;;;;;;;;;;19.24;56.10;97794.00;4227199;28;8476;-62
2023/10/06 05:58:50;;;;;;;;;;;;;;;19.24;56.16;97794.00;4230961;28;5676;-62
2023/10/06 06:00:55;;;;;;;;;;;;;;;19.24;55.89;97800.19;4224912;28;5860;-63
2023/10/06 06:03:09;;;;;;;;;;;;;;;19.20;55.78;97799.00;4226346;28;5755;-64
2023/10/06 06:05:12;;;;;;;;;;;;;;;19.16;55.71;97804.00;4225080;28;5664;-63
2023/10/06 06:07:15;;;;;;;;;;;;;;;19.16;55.82;97808.53;4208429;28;5682;-63
2023/10/06 06:09:19;;;;;;;;;;;;;;;19.15;55.81;97806.91;4219961;28;5669;-63
2023/10/06 06:11:22;;;;;;;;;;;;;;;19.13;55.42;97809.78;4219533;28;5759;-63
2023/10/06 06:13:26;;;;;;;;;;;;;;;19.09;55.22;97808.59;4219736;28;6348;-63
2023/10/06 06:15:29;;;;;;;;;;;;;;;19.09;55.41;97816.63;4219762;28;5811;-63
2023/10/06 06:17:34;;;;;;;;;;;;;;;19.11;55.40;97811.88;4219750;28;5776;-63
2023/10/06 06:19:39;;;;;;;;;;;;;;;19.10;55.20;97818.28;4207620;28;5694;-63
2023/10/06 06:21:42;;;;;;;;;;;;;;;19.10;55.21;97823.63;4206802;28;5660;-62
2023/10/06 06:23:46;;;;;;;;;;;;;;;19.11;55.04;97824.44;4219625;28;5764;-62
2023/10/06 06:25:49;;;;;;;;;;;;;;;19.10;55.05;97825.50;4219357;28;5672;-64
2023/10/06 06:27:54;;;;;;;;;;;;;;;19.11;54.90;97829.81;4219208;28;5790;-62
2023/10/06 06:29:58;;;;;;;;;;;;;;;19.11;54.83;97827.13;4219525;28;5676;-63
2023/10/06 06:32:11;;;;;;;;;;;;;;;19.11;54.71;97832.50;4219180;28;5701;-64
2023/10/06 06:34:16;;;;;;;;;;;;;;;19.09;54.85;97827.34;4219447;28;5677;-63
2023/10/06 06:36:19;;;;;;;;;;;;;;;19.08;54.71;97830.25;4219596;28;5692;-63
2023/10/06 06:38:24;;;;;;;;;;;;;;;19.10;54.63;97825.50;4209523;28;5685;-63
2023/10/06 06:40:28;;;;;;;;;;;;;;;19.10;54.69;97831.69;4202662;28;5690;-63
2023/10/06 06:42:31;;;;;;;;;;;;;;;19.10;54.43;97825.50;4202306;28;5774;-63
2023/10/06 06:44:34;;;;;;;;;;;;;;;19.10;54.37;97834.34;4202507;28;5745;-63
2023/10/06 06:46:38;;;;;;;;;;;;;;;19.10;54.35;97831.69;4202289;28;6491;-63
2023/10/06 06:48:43;;;;;;;;;;;;;;;19.11;54.13;97836.00;4202486;28;5719;-63
2023/10/06 06:50:48;;;;;;;;;;;;;;;19.11;53.91;97841.34;4202470;28;5730;-63
2023/10/06 06:52:56;;;;;;;;;;;;;;;19.11;53.92;97832.50;4202427;28;5702;-64
2023/10/06 06:54:59;;;;;;;;;;;;;;;19.12;53.83;97837.63;4217179;28;5672;-63
2023/10/06 06:57:02;;;;;;;;;;;;;;;19.17;53.87;97834.31;4219078;28;5767;-63
2023/10/06 06:59:05;;;;;;;;;;;;;;;19.19;53.98;97840.25;4203230;28;5734;-63
2023/10/06 07:01:14;;;;;;;;;;;;;;;19.18;53.96;97838.63;4218069;28;5672;-63
2023/10/06 07:03:19;;;;;;;;;;;;;;;19.20;53.66;97842.72;4219015;28;5799;-63
2023/10/06 07:05:23;;;;;;;;;;;;;;;19.24;53.64;97842.25;4218486;28;5783;-64
2023/10/06 07:07:25;;;;;;;;;;;;;;;19.22;53.49;97841.66;4218740;28;5751;-64
2023/10/06 07:09:27;;;;;;;;;;;;;;;19.20;53.63;97842.72;4216677;28;5669;-63
2023/10/06 07:11:30;;;;;;;;;;;;;;;19.21;53.47;97835.47;4201778;28;5772;-63
2023/10/06 07:13:33;;;;;;;;;;;;;;;19.23;53.48;97840.63;4202196;28;5761;-63
2023/10/06 07:15:36;;;;;;;;;;;;;;;19.25;53.52;97846.56;4211171;28;5692;-63
2023/10/06 07:17:39;;;;;;;;;;;;;;;19.27;53.68;97848.00;4217761;28;5807;-63
2023/10/06 07:19:43;;;;;;;;;;;;;;;19.28;53.52;97844.28;4206479;28;7733;-63
2023/10/06 07:21:46;;;;;;;;;;;;;;;19.28;53.45;97848.81;4214450;28;5676;-63
2023/10/06 07:23:51;;;;;;;;;;;;;;;19.29;53.82;97859.31;4217477;28;5692;-63
2023/10/06 07:25:55;;;;;;;;;;;;;;;19.31;53.77;97854.56;4218453;28;5661;-63
2023/10/06 07:27:59;;;;;;;;;;;;;;;19.35;53.88;97855.72;4218453;28;5661;-64
2023/10/06 07:30:04;;;;;;;;;;;;;;;19.40;53.91;97849.72;4217780;28;5669;-63
2023/10/06 07:32:07;;;;;;;;;;;;;;;19.43;53.73;97854.63;4214172;28;5705;-64
2023/10/06 07:34:11;;;;;;;;;;;;;;;19.46;54.01;97859.53;4217078;28;5784;-63
2023/10/06 07:36:17;;;;;;;;;;;;;;;19.47;53.70;97858.50;4201505;28;5774;-64
2023/10/06 07:38:21;;;;;;;;;;;;;;;19.49;54.24;97859.13;4202745;28;5674;-63
2023/10/06 07:40:27;;;;;;;;;;;;;;;19.49;54.18;97856.44;4218331;28;6521;-63
2023/10/06 07:42:30;;;;;;;;;;;;;;;19.50;53.99;97860.75;4206866;28;5814;-63
2023/10/06 07:44:33;;;;;;;;;;;;;;;19.54;54.20;97859.25;4201514;28;5694;-62
2023/10/06 07:46:36;;;;;;;;;;;;;;;19.56;54.17;97867.91;4212979;28;5927;-63
2023/10/06 07:48:39;;;;;;;;;;;;;;;19.56;54.33;97862.53;4218329;28;5089;-63
2023/10/06 07:50:42;;;;;;;;;;;;;;;19.54;54.43;97864.59;4218333;28;5099;-64
2023/10/06 07:52:46;;;;;;;;;;;;;;;19.56;54.25;97870.59;4218108;28;5677;-63
2023/10/06 07:54:49;;;;;;;;;;;;;;;19.58;54.38;97871.19;4218367;28;5673;-62
2023/10/06 07:56:52;;;;;;;;;;;;;;;19.59;54.41;97864.78;4217687;28;5796;-63
2023/10/06 07:58:56;;;;;;;;;;;;;;;19.63;54.51;97867.84;4203450;28;5724;-63
2023/10/06 08:01:02;;;;;;;;;;;;;;;19.66;54.66;97868.22;4201237;28;5682;-63
2023/10/06 08:03:05;;;;;;;;;;;;;;;19.69;54.55;97867.75;4200872;28;5706;-63
2023/10/06 08:05:11;;;;;;;;;;;;;;;19.69;54.51;97865.06;4201256;28;5679;-63
2023/10/06 08:07:14;;;;;;;;;;;;;;;19.68;54.29;97863.44;4200767;28;5682;-64
2023/10/06 08:09:19;;;;;;;;;;;;;;;19.68;54.72;97874.16;4201801;28;5706;-63
2023/10/06 08:11:25;;;;;;;;;;;;;;;19.71;54.47;97875.59;4217715;28;5759;-63
2023/10/06 08:13:30;;;;;;;;;;;;;;;19.70;54.54;97868.56;4215278;28;5894;-62
2023/10/06 08:15:35;;;;;;;;;;;;;;;19.71;54.78;97870.25;4201270;28;5690;-63
2023/10/06 08:17:38;;;;;;;;;;;;;;;19.72;54.65;97867.31;4201054;28;5766;-63
2023/10/06 08:19:41;;;;;;;;;;;;;;;19.74;54.78;97867.91;4200968;28;5780;-64
2023/10/06 08:21:44;;;;;;;;;;;;;;;19.77;54.92;97867.44;4200857;28;5698;-62
2023/10/06 08:23:47;;;;;;;;;;;;;;;19.79;54.68;97864.53;4200837;28;5801;-63
2023/10/06 08:25:56;;;;;;;;;;;;;;;19.82;54.83;97872.16;4200696;28;5690;-64
2023/10/06 08:28:05;;;;;;;;;;;;;;;19.81;54.85;97873.19;4200674;28;5690;-63
2023/10/06 08:30:09;;;;;;;;;;;;;;;19.77;54.93;97869.31;4208127;28;5668;-62
2023/10/06 08:32:11;;;;;;;;;;;;;;;19.80;54.69;97868.03;4217570;28;5677;-63
2023/10/06 08:34:14;;;;;;;;;;;;;;;19.83;55.07;97867.63;4217644;28;5677;-63
2023/10/06 08:36:17;;;;;;;;;;;;;;;19.86;54.90;97867.97;4217318;28;5935;-63
2023/10/06 08:38:20;;;;;;;;;;;;;;;19.89;54.95;97869.38;4217618;28;5688;-63
2023/10/06 08:40:22;;;;;;;;;;;;;;;19.92;54.85;97868.91;4217703;28;5668;-63
2023/10/06 08:42:28;;;;;;;;;;;;;;;19.95;54.78;97868.47;4217038;28;5748;-63
2023/10/06 08:44:36;;;;;;;;;;;;;;;19.94;54.76;97856.13;4217576;28;5748;-62
2023/10/06 08:46:44;;;;;;;;;;;;;;;19.97;54.84;97867.22;4205268;28;5702;-63
2023/10/06 08:48:48;;;;;;;;;;;;;;;19.99;55.08;97873.16;4200477;28;5838;-63
2023/10/06 08:50:53;;;;;;;;;;;;;;;19.96;54.98;97870.13;4200779;28;5769;-63
2023/10/06 08:52:58;;;;;;;;;;;;;;;19.95;55.13;97863.13;4200717;28;5784;-68
2023/10/06 08:55:01;;;;;;;;;;;;;;;19.94;55.20;97864.16;4200637;28;5707;-71
2023/10/06 08:57:04;;;;;;;;;;;;;;;19.97;55.49;97871.75;4199782;28;5729;-67
2023/10/06 08:59:11;;;;;;;;;;;;;;;19.96;55.35;97867.44;4200726;28;5709;-64
2023/10/06 09:01:14;;;;;;;;;;;;;;;19.97;55.43;97863.72;4200577;28;5799;-63
2023/10/06 09:03:21;;;;;;;;;;;;;;;19.96;55.34;97860.19;4217197;28;5684;-64
2023/10/06 09:05:28;;;;;;;;;;;;;;;19.97;55.51;97858.34;4206760;28;5678;-64
2023/10/06 09:07:31;;;;;;;;;;;;;;;19.99;55.40;97854.38;4200670;28;5706;-64
2023/10/06 09:09:36;;;;;;;;;;;;;;;20.00;55.53;97856.00;4200924;28;6404;-64
2023/10/06 09:11:39;;;;;;;;;;;;;;;20.02;55.45;97855.78;4200395;28;5288;-64
2023/10/06 09:13:42;;;;;;;;;;;;;;;20.03;55.68;97860.09;4200576;28;5781;-64
2023/10/06 09:15:59;;;;;;;;;;;;;;;20.02;55.58;97848.53;4213364;28;5665;-64
2023/10/06 09:18:18;;;;;;;;;;;;;;;20.05;55.88;97852.66;4210285;28;5807;-64
2023/10/06 09:20:27;;;;;;;;;;;;;;;20.09;55.64;97855.69;4200470;28;5810;-64
2023/10/06 09:22:45;;;;;;;;;;;;;;;20.10;55.86;97852.78;4200546;28;5714;-64
2023/10/06 09:24:59;;;;;;;;;;;;;;;20.11;56.02;97851.72;4205381;28;5668;-65
2023/10/06 09:27:21;;;;;;;;;;;;;;;20.06;55.65;97841.69;4217101;28;5839;-65
2023/10/06 09:29:32;;;;;;;;;;;;;;;20.06;55.98;97848.94;4215838;28;5819;-65
2023/10/06 09:31:38;;;;;;;;;;;;;;;20.07;55.95;97847.88;4216980;28;5673;-65
2023/10/06 09:33:48;;;;;;;;;;;;;;;20.10;56.14;97850.09;4212944;28;5776;-64
2023/10/06 09:36:01;;;;;;;;;;;;;;;20.12;55.78;97845.31;4214092;28;5843;-65
2023/10/06 09:38:13;;;;;;;;;;;;;;;20.15;55.87;97852.91;4200342;28;5225;-64
2023/10/06 09:40:20;;;;;;;;;;;;;;;20.18;55.86;97843.59;4199918;28;5686;-62
2023/10/06 09:42:27;;;;;;;;;;;;;;;20.17;55.75;97837.41;4201087;28;5690;-64
2023/10/06 09:44:31;;;;;;;;;;;;;;;20.17;55.92;97842.78;4204129;28;5810;-64
2023/10/06 09:46:35;;;;;;;;;;;;;;;20.17;55.92;97837.41;4207475;28;6578;-62
2023/10/06 09:48:42;;;;;;;;;;;;;;;20.20;55.78;97841.50;4211211;28;5769;-63
2023/10/06 09:50:50;;;;;;;;;;;;;;;20.22;56.09;97829.47;4214301;28;6372;-64
2023/10/06 09:52:54;;;;;;;;;;;;;;;20.22;56.18;97834.03;4203554;28;5697;-64
2023/10/06 09:54:59;;;;;;;;;;;;;;;20.18;55.98;97833.69;4209287;28;5728;-63
2023/10/06 09:57:03;;;;;;;;;;;;;;;20.14;56.08;97835.16;4219688;28;5755;-63
2023/10/06 09:59:07;;;;;;;;;;;;;;;20.13;56.25;97830.84;4219051;28;5685;-63
2023/10/06 10:01:11;;;;;;;;;;;;;;;20.10;56.60;97831.31;4219842;28;5721;-63
2023/10/06 10:03:16;;;;;;;;;;;;;;;20.11;56.82;97835.63;4219250;28;5790;-63
2023/10/06 10:05:22;;;;;;;;;;;;;;;20.11;56.53;97832.94;4219559;28;5653;-63
2023/10/06 10:07:25;;;;;;;;;;;;;;;20.13;56.56;97830.84;4216725;28;5838;-64
2023/10/06 10:09:29;;;;;;;;;;;;;;;20.15;56.46;97827.94;4202893;28;5694;-64
2023/10/06 10:11:39;;;;;;;;;;;;;;;20.17;56.57;97823.16;4205559;28;5907;-64
2023/10/06 10:14:10;;;;;;;;;;;;;;;20.19;56.41;97829.94;4219032;28;5850;-65
2023/10/06 10:16:30;;;;;;;;;;;;;;;20.21;56.35;97827.84;4219376;28;5708;-64
2023/10/06 10:18:36;;;;;;;;;;;;;;;20.24;56.25;97822.00;4219659;28;6366;-64
2023/10/06 10:20:41;;;;;;;;;;;;;;;20.25;56.22;97812.91;4219726;28;5799;-64
2023/10/06 10:22:44;;;;;;;;;;;;;;;20.28;56.35;97827.75;4214713;28;5697;-63
2023/10/06 10:24:47;;;;;;;;;;;;;;;20.29;56.20;97819.47;4207570;28;5684;-63
2023/10/06 10:26:54;;;;;;;;;;;;;;;20.31;56.15;97813.84;4218337;28;5771;-63
2023/10/06 10:29:28;;;;;;;;;;;;;;;20.32;56.40;97819.00;4219104;28;5835;-63
2023/10/06 10:31:37;;;;;;;;;;;;;;;20.34;56.08;97816.88;4218510;28;5770;-63
2023/10/06 10:34:00;;;;;;;;;;;;;;;20.35;56.23;97817.72;4217543;28;5951;-64
2023/10/06 10:36:25;;;;;;;;;;;;;;;20.34;56.28;97814.22;4207993;28;5846;-63
2023/10/06 10:38:27;;;;;;;;;;;;;;;20.34;55.88;97816.88;4216930;28;5673;-63
2023/10/06 10:40:31;;;;;;;;;;;;;;;20.36;56.11;97819.34;4217098;28;5669;-63
2023/10/06 10:42:38;;;;;;;;;;;;;;;20.34;56.20;97816.06;4207633;28;5699;-64
2023/10/06 10:44:43;;;;;;;;;;;;;;;20.37;55.92;97812.91;4205812;28;5657;-63
2023/10/06 10:46:50;;;;;;;;;;;;;;;20.40;55.91;97812.47;4208003;28;5677;-63
2023/10/06 10:48:53;;;;;;;;;;;;;;;20.40;56.14;97815.16;4219177;28;5673;-63
2023/10/06 10:51:01;;;;;;;;;;;;;;;20.42;55.74;97801.50;4210253;28;5867;-63
2023/10/06 10:53:05;;;;;;;;;;;;;;;20.42;55.97;97815.78;4219097;28;5732;-63
2023/10/06 10:55:12;;;;;;;;;;;;;;;20.43;56.15;97805.84;4217188;28;5775;-63
2023/10/06 10:57:21;;;;;;;;;;;;;;;20.45;55.70;97807.25;4204725;28;5781;-62
2023/10/06 10:59:31;;;;;;;;;;;;;;;20.48;55.95;97811.34;4208839;28;5980;-63
2023/10/06 11:01:36;;;;;;;;;;;;;;;20.48;55.80;97809.47;4210590;28;5698;-62
2023/10/06 11:03:41;;;;;;;;;;;;;;;20.50;55.93;97807.41;4210430;28;5812;-63
2023/10/06 11:05:45;;;;;;;;;;;;;;;20.49;55.77;97812.97;4210335;28;5697;-63
2023/10/06 11:07:56;;;;;;;;;;;;;;;20.48;56.00;97805.97;4218525;28;5762;-63
2023/10/06 11:10:02;;;;;;;;;;;;;;;20.51;55.64;97806.34;4216227;28;5728;-63
2023/10/06 11:12:17;;;;;;;;;;;;;;;20.52;55.84;97802.59;4218780;28;5688;-63
2023/10/06 11:14:25;;;;;;;;;;;;;;;20.53;55.49;97803.41;4217832;28;5812;-63
2023/10/06 11:16:29;;;;;;;;;;;;;;;20.52;55.35;97799.09;4218014;28;5673;-63
2023/10/06 11:18:34;;;;;;;;;;;;;;;20.54;55.74;97802.38;4202099;28;5785;-63
2023/10/06 11:20:39;;;;;;;;;;;;;;;20.55;55.81;97798.63;4217285;28;5818;-63
2023/10/06 11:22:53;;;;;;;;;;;;;;;20.56;55.23;97798.38;4217786;28;5665;-63
2023/10/06 11:25:00;;;;;;;;;;;;;;;20.59;55.45;97799.78;4216944;28;5795;-63
2023/10/06 11:27:14;;;;;;;;;;;;;;;20.58;54.52;97795.47;4216771;28;5771;-63
2023/10/06 11:29:28;;;;;;;;;;;;;;;20.55;54.43;97790.56;4218279;28;5756;-62
2023/10/06 11:31:31;;;;;;;;;;;;;;;20.54;54.37;97789.75;4218409;28;5787;-62
2023/10/06 11:33:35;;;;;;;;;;;;;;;20.57;54.77;97788.47;4218294;28;5673;-62
2023/10/06 11:35:40;;;;;;;;;;;;;;;20.58;54.34;97790.09;4216636;28;5665;-62
2023/10/06 11:37:44;;;;;;;;;;;;;;;20.60;54.25;97785.31;4213039;28;5783;-61
2023/10/06 11:39:47;;;;;;;;;;;;;;;20.62;54.20;97781.34;4211881;28;5672;-62
2023/10/06 11:41:51;;;;;;;;;;;;;;;20.63;54.03;97787.53;4217699;28;5698;-62
2023/10/06 11:43:58;;;;;;;;;;;;;;;20.63;54.36;97784.84;4218235;28;5673;-61
2023/10/06 11:46:04;;;;;;;;;;;;;;;20.63;53.87;97771.44;4202988;28;5682;-62
2023/10/06 11:48:23;;;;;;;;;;;;;;;20.63;53.95;97768.75;4201594;28;5816;-61
2023/10/06 11:50:31;;;;;;;;;;;;;;;20.65;53.42;97769.31;4214690;28;5895;-62
2023/10/06 11:52:34;;;;;;;;;;;;;;;20.66;53.48;97776.31;4216498;28;5665;-65
2023/10/06 11:54:40;;;;;;;;;;;;;;;20.68;53.73;97768.03;4217212;28;5677;-61
2023/10/06 11:56:51;;;;;;;;;;;;;;;20.69;53.52;97770.47;4216929;28;5759;-61
2023/10/06 11:58:56;;;;;;;;;;;;;;;20.71;53.43;97765.69;4211833;28;5752;-62
2023/10/06 12:00:59;;;;;;;;;;;;;;;20.70;53.25;97764.03;4206438;28;5752;-62
2023/10/06 12:03:03;;;;;;;;;;;;;;;20.75;53.18;97763.38;4202273;28;6518;-63
2023/10/06 12:05:13;;;;;;;;;;;;;;;20.75;53.11;97758.00;4212865;28;5078;-62
2023/10/06 12:07:21;;;;;;;;;;;;;;;20.76;53.16;97749.69;4209268;28;5681;-63
2023/10/06 12:09:25;;;;;;;;;;;;;;;20.78;53.16;97758.31;4210993;28;5669;-62
2023/10/06 12:11:28;;;;;;;;;;;;;;;20.78;53.00;97749.44;4209280;28;5694;-62
2023/10/06 12:13:32;;;;;;;;;;;;;;;20.78;52.68;97752.94;4208646;28;5686;-63
2023/10/06 12:15:36;;;;;;;;;;;;;;;20.78;52.61;97744.91;4214888;28;5690;-63
2023/10/06 12:17:38;;;;;;;;;;;;;;;20.79;52.84;97748.41;4207494;28;5731;-62
2023/10/06 12:19:42;;;;;;;;;;;;;;;20.80;52.36;97750.84;4215122;28;5685;-63
2023/10/06 12:21:44;;;;;;;;;;;;;;;20.81;52.47;97735.53;4205268;28;5694;-66
2023/10/06 12:23:48;;;;;;;;;;;;;;;20.81;52.51;97747.09;4204459;28;5795;-62
2023/10/06 12:25:51;;;;;;;;;;;;;;;20.82;52.32;97743.34;4203880;28;5728;-63
2023/10/06 12:27:56;;;;;;;;;;;;;;;20.82;52.46;97737.97;4213679;28;6197;-65
2023/10/06 12:30:03;;;;;;;;;;;;;;;20.83;52.10;97739.63;4214921;28;5661;-63
2023/10/06 12:32:07;;;;;;;;;;;;;;;20.83;52.47;97739.63;4212676;28;5696;-62
2023/10/06 12:34:15;;;;;;;;;;;;;;;20.83;52.12;97734.25;4213272;28;5127;-61
2023/10/06 12:36:18;;;;;;;;;;;;;;;20.85;52.05;97734.03;4213096;28;5677;-59
2023/10/06 12:38:22;;;;;;;;;;;;;;;20.85;51.84;97736.72;4208713;28;5681;-59
2023/10/06 12:40:26;;;;;;;;;;;;;;;20.85;52.21;97731.34;4215341;28;5685;-59
2023/10/06 12:42:31;;;;;;;;;;;;;;;20.85;51.70;97737.53;4214170;28;5669;-58
2023/10/06 12:44:39;;;;;;;;;;;;;;;20.85;51.60;97732.16;4216192;28;5788;-59
2023/10/06 12:46:42;;;;;;;;;;;;;;;20.84;51.98;97727.84;4208446;28;5889;-58
2023/10/06 12:48:47;;;;;;;;;;;;;;;20.85;51.71;97732.16;4216898;28;5871;-58
2023/10/06 12:50:49;;;;;;;;;;;;;;;20.86;51.26;97728.41;4211325;28;5781;-58
2023/10/06 12:52:52;;;;;;;;;;;;;;;20.85;51.20;97718.72;4199799;28;5808;-58
2023/10/06 12:54:55;;;;;;;;;;;;;;;20.85;51.46;97715.22;4204879;28;5721;-58
2023/10/06 12:56:57;;;;;;;;;;;;;;;20.84;51.02;97718.97;4215911;28;5693;-58
2023/10/06 12:59:00;;;;;;;;;;;;;;;20.86;51.08;97716.84;4200383;28;5627;-58
2023/10/06 13:01:07;;;;;;;;;;;;;;;20.86;51.18;97714.97;4208928;28;5672;-58
2023/10/06 13:03:15;;;;;;;;;;;;;;;20.88;50.93;97704.81;4216202;28;6043;-59
2023/10/06 13:05:22;;;;;;;;;;;;;;;20.92;50.76;97715.88;4204247;28;6386;-57
2023/10/06 13:07:31;;;;;;;;;;;;;;;20.93;50.91;97715.66;4206516;28;5830;-59
2023/10/06 13:09:35;;;;;;;;;;;;;;;20.96;51.21;97705.50;4203111;28;5853;-64
2023/10/06 13:11:39;;;;;;;;;;;;;;;20.98;50.98;97706.06;4204646;28;5670;-59
2023/10/06 13:13:47;;;;;;;;;;;;;;;20.99;50.90;97707.72;4209939;28;6553;-59
2023/10/06 13:15:51;;;;;;;;;;;;;;;21.00;50.71;97706.66;4211703;28;5773;-59
2023/10/06 13:17:54;;;;;;;;;;;;;;;21.01;50.70;97702.91;4212361;28;5848;-59
2023/10/06 13:19:57;;;;;;;;;;;;;;;21.03;50.77;97695.41;4215922;28;5689;-59
2023/10/06 13:22:02;;;;;;;;;;;;;;;21.05;51.13;97698.69;4218664;28;5700;-59
2023/10/06 13:24:06;;;;;;;;;;;;;;;21.06;51.21;97694.94;4218187;28;5785;-59
2023/10/06 13:26:11;;;;;;;;;;;;;;;21.08;51.16;97701.72;4203421;28;6632;-59
2023/10/06 13:28:30;;;;;;;;;;;;;;;21.09;51.16;97700.66;4211404;28;5661;-59
2023/10/06 13:30:33;;;;;;;;;;;;;;;21.10;50.61;97696.09;4205716;28;5903;-59
2023/10/06 13:32:36;;;;;;;;;;;;;;;21.10;50.93;97698.81;4208262;28;5798;-60
2023/10/06 13:34:39;;;;;;;;;;;;;;;21.11;50.74;97697.75;4211326;28;5785;-59
2023/10/06 13:36:42;;;;;;;;;;;;;;;21.10;50.99;97696.09;4206852;28;5669;-59
2023/10/06 13:38:46;;;;;;;;;;;;;;;21.11;51.07;97692.38;4206759;28;6561;-60
2023/10/06 13:40:50;;;;;;;;;;;;;;;21.10;51.06;97701.50;4216620;28;5789;-59
2023/10/06 13:42:53;;;;;;;;;;;;;;;21.10;50.91;97696.94;4213700;28;5719;-59
2023/10/06 13:44:55;;;;;;;;;;;;;;;21.09;51.14;97695.28;4202673;28;5694;-58
2023/10/06 13:46:58;;;;;;;;;;;;;;;21.10;51.12;97696.09;4209121;28;5697;-58
2023/10/06 13:49:04;;;;;;;;;;;;;;;21.10;51.10;97696.09;4211343;28;5672;-58
2023/10/06 13:51:10;;;;;;;;;;;;;;;21.12;51.17;97699.38;4211189;28;5090;-58
2023/10/06 13:53:15;;;;;;;;;;;;;;;21.13;51.07;97696.44;4210961;28;5667;-57
2023/10/06 13:55:22;;;;;;;;;;;;;;;21.14;50.98;97695.38;4203143;28;5804;-59
2023/10/06 13:57:24;;;;;;;;;;;;;;;21.14;51.09;97698.06;4207626;28;6229;-59
2023/10/06 13:59:28;;;;;;;;;;;;;;;21.15;51.20;97685.44;4206108;28;5752;-58
2023/10/06 14:01:33;;;;;;;;;;;;;;;21.14;51.06;97691.88;4214519;28;5760;-58
2023/10/06 14:03:36;;;;;;;;;;;;;;;21.15;50.96;97691.63;4212251;28;6345;-58
2023/10/06 14:05:41;;;;;;;;;;;;;;;21.14;51.19;97690.00;4209693;28;5883;-59
2023/10/06 14:07:45;;;;;;;;;;;;;;;21.14;50.98;97687.31;4210813;28;5800;-58
2023/10/06 14:09:48;;;;;;;;;;;;;;;21.17;51.43;97688.72;4214738;28;5661;-59
2023/10/06 14:11:53;;;;;;;;;;;;;;;21.17;51.08;97680.63;4204308;28;5702;-58
2023/10/06 14:13:57;;;;;;;;;;;;;;;21.18;51.30;97679.59;4214768;28;5676;-58
2023/10/06 14:16:09;;;;;;;;;;;;;;;21.18;51.14;97680.44;4212978;28;5771;-58
2023/10/06 14:18:14;;;;;;;;;;;;;;;21.19;51.31;97683.94;4214536;28;5070;-58
2023/10/06 14:20:23;;;;;;;;;;;;;;;21.20;51.54;97685.56;4208942;28;5673;-58
2023/10/06 14:22:30;;;;;;;;;;;;;;;21.19;51.09;97679.38;4216815;28;6345;-59
2023/10/06 14:24:34;;;;;;;;;;;;;;;21.20;51.37;97680.19;4204914;28;5830;-58
2023/10/06 14:26:37;;;;;;;;;;;;;;;21.21;51.30;97673.75;4209078;28;5788;-59
2023/10/06 14:28:41;;;;;;;;;;;;;;;21.21;51.23;97673.75;4208610;28;5676;-60
2023/10/06 14:30:45;;;;;;;;;;;;;;;21.23;51.50;97669.75;4215315;28;5682;-59
2023/10/06 14:33:07;;;;;;;;;;;;;;;21.26;51.49;97678.44;4206985;28;5797;-59
2023/10/06 14:35:23;;;;;;;;;;;;;;;21.25;51.64;97672.19;4215996;28;5668;-59
2023/10/06 14:37:38;;;;;;;;;;;;;;;21.28;51.96;97671.75;4214617;28;5777;-59
2023/10/06 14:46:49;;;;;;;;;;;;;;;21.28;52.19;97673.63;4203608;28;5850;-58
2023/10/06 14:49:13;;;;;;;;;;;;;;;21.29;52.28;97678.75;4214279;28;5839;-59
2023/10/06 14:51:18;;;;;;;;;;;;;;;21.29;51.93;97677.94;4215010;28;5681;-59
2023/10/06 14:53:21;;;;;;;;;;;;;;;21.29;52.18;97669.88;4214922;28;5751;-59
2023/10/06 14:55:24;;;;;;;;;;;;;;;21.29;52.24;97672.56;4202376;28;5773;-59
2023/10/06 14:57:27;;;;;;;;;;;;;;;21.29;52.49;97670.69;4210382;28;5927;-58
2023/10/06 14:59:32;;;;;;;;;;;;;;;21.28;52.46;97671.75;4209008;28;6405;-58
2023/10/06 15:01:36;;;;;;;;;;;;;;;21.30;52.46;97663.47;4203865;28;5678;-58
2023/10/06 15:03:40;;;;;;;;;;;;;;;21.30;52.83;97666.16;4204961;28;6545;-59
2023/10/06 15:05:45;;;;;;;;;;;;;;;21.30;52.76;97666.97;4209565;28;5985;-58
2023/10/06 15:07:48;;;;;;;;;;;;;;;21.30;52.77;97677.72;4208938;28;8540;-58
2023/10/06 15:09:51;;;;;;;;;;;;;;;21.31;52.91;97668.59;4206209;28;5681;-58
2023/10/06 15:11:54;;;;;;;;;;;;;;;21.32;52.65;97666.72;4210912;28;5851;-58
2023/10/06 15:13:57;;;;;;;;;;;;;;;21.32;52.75;97667.53;4208208;28;5758;-58
2023/10/06 15:16:07;;;;;;;;;;;;;;;21.32;52.76;97669.41;4215916;28;6414;-59
2023/10/06 15:18:11;;;;;;;;;;;;;;;21.31;53.33;97665.91;4212826;28;5116;-58
2023/10/06 15:20:19;;;;;;;;;;;;;;;21.32;53.11;97669.41;4212515;28;5775;-58
2023/10/06 15:22:22;;;;;;;;;;;;;;;21.31;52.89;97665.91;4208557;28;5694;-57
2023/10/06 15:24:25;;;;;;;;;;;;;;;21.33;53.06;97669.16;4210754;28;5696;-58
2023/10/06 15:26:27;;;;;;;;;;;;;;;21.34;53.18;97668.09;4210749;28;5819;-58
2023/10/06 15:28:31;;;;;;;;;;;;;;;21.34;53.38;97665.41;4199811;28;5789;-58
2023/10/06 15:30:41;;;;;;;;;;;;;;;21.34;53.29;97660.03;4200227;28;5773;-58
2023/10/06 15:32:46;;;;;;;;;;;;;;;21.35;53.33;97661.66;4212661;28;5731;-60
2023/10/06 15:34:48;;;;;;;;;;;;;;;21.35;53.46;97667.03;4216566;28;5747;-58
2023/10/06 15:36:51;;;;;;;;;;;;;;;21.34;53.28;97669.97;4211541;28;5818;-59
2023/10/06 15:38:59;;;;;;;;;;;;;;;21.34;53.71;97675.34;4205777;28;5724;-57
2023/10/06 15:41:08;;;;;;;;;;;;;;;21.32;53.72;97667.53;4207372;28;5767;-57
2023/10/06 15:43:11;;;;;;;;;;;;;;;21.33;53.40;97673.72;4205334;28;5772;-58
2023/10/06 15:45:22;;;;;;;;;;;;;;;21.33;53.64;97674.53;4207114;28;5792;-58
2023/10/06 15:47:26;;;;;;;;;;;;;;;21.34;53.85;97676.19;4207787;28;5665;-58
2023/10/06 15:49:30;;;;;;;;;;;;;;;21.34;53.56;97673.47;4202763;28;5763;-58
2023/10/06 15:51:33;;;;;;;;;;;;;;;21.33;54.04;97666.47;4216128;28;5874;-59
2023/10/06 15:53:38;;;;;;;;;;;;;;;21.35;53.86;97683.19;4213493;28;5690;-58
2023/10/06 15:55:43;;;;;;;;;;;;;;;21.34;54.23;97681.56;4211261;28;5851;-58
2023/10/06 15:57:47;;;;;;;;;;;;;;;21.34;53.97;97681.56;4211356;28;5664;-58
2023/10/06 15:59:50;;;;;;;;;;;;;;;21.34;54.03;97684.25;4214459;28;5673;-58
2023/10/06 16:01:54;;;;;;;;;;;;;;;21.34;53.96;97678.88;4199112;28;5777;-59
2023/10/06 16:03:58;;;;;;;;;;;;;;;21.34;54.04;97686.94;4206653;28;5736;-59
2023/10/06 16:06:04;;;;;;;;;;;;;;;21.35;54.11;97687.75;4212210;28;5756;-58
2023/10/06 16:08:07;;;;;;;;;;;;;;;21.35;54.54;97690.44;4210402;28;5680;-58
2023/10/06 16:10:15;;;;;;;;;;;;;;;21.34;54.44;97681.56;4211203;28;5112;-58
2023/10/06 16:12:18;;;;;;;;;;;;;;;21.35;54.46;97677.00;4206040;28;5657;-59
2023/10/06 16:14:21;;;;;;;;;;;;;;;21.34;54.20;97676.19;4211539;28;5686;-59
2023/10/06 16:16:24;;;;;;;;;;;;;;;21.34;54.18;97681.56;4207753;28;7109;-59